Time;durP1;ratioP1;P1;durP2;ratioP2;P2;SDS_P1;SDS_P2;PMS_P1;PMS_P2;Temp;Humidity;BMP_temperature;BMP_pressure;BME280_temperature;BME280_humidity;BME280_pressure;Samples;Min_cycle;Max_cycle;Signal;HPM_P1;HPM_P2
2023/01/23 05:43:45;;;;;;;;;63.75;46.25;;;;;2.09;100.00;103109.22;4974262;28;49763;-67
2023/01/23 05:46:10;;;;;;;;;47.50;43.75;;;;;2.08;100.00;103122.94;4943129;28;49927;-65
2023/01/23 05:48:36;;;;;;;;;48.75;42.25;;;;;2.65;100.00;103213.72;4961378;28;49963;-67
2023/01/23 05:51:02;;;;;;;;;38.50;35.00;;;;;2.12;100.00;103113.78;4967805;28;50193;-69
2023/01/23 05:53:28;;;;;;;;;60.75;44.25;;;;;2.66;100.00;103216.44;4971183;28;50542;-69
2023/01/23 05:55:53;;;;;;;;;24.50;18.75;;;;;1.35;100.00;102991.81;4964850;28;49865;-69
2023/01/23 05:58:19;;;;;;;;;53.00;43.25;;;;;1.14;100.00;102955.41;4970708;28;50133;-68
2023/01/23 06:00:44;;;;;;;;;59.50;43.00;;;;;2.34;100.00;103173.69;4970459;28;49773;-75
2023/01/23 06:03:09;;;;;;;;;63.75;43.00;;;;;1.90;100.00;103084.97;4953329;28;51365;-68
2023/01/23 06:05:35;;;;;;;;;35.75;30.00;;;;;1.52;100.00;103027.03;4970938;28;49659;-76
2023/01/23 06:08:00;;;;;;;;;40.00;33.50;;;;;2.67;100.00;103230.31;4971698;28;49860;-73
2023/01/23 06:10:26;;;;;;;;;51.00;43.25;;;;;1.87;100.00;103114.09;4971406;28;49698;-77
2023/01/23 06:12:51;;;;;;;;;51.00;43.75;;;;;1.25;100.00;103010.75;4976440;28;49816;-73
2023/01/23 06:15:17;;;;;;;;;52.50;43.00;;;;;1.88;100.00;103100.38;4971396;28;49793;-71
2023/01/23 06:17:42;;;;;;;;;34.00;32.25;;;;;1.21;100.00;103020.69;4953639;28;49892;-68
2023/01/23 06:20:08;;;;;;;;;39.25;36.25;;;;;2.57;100.00;103238.94;4971196;28;49771;-73
2023/01/23 06:22:33;;;;;;;;;47.25;35.00;;;;;2.38;100.00;103217.25;4970797;28;51075;-74
2023/01/23 06:24:59;;;;;;;;;42.50;36.75;;;;;2.49;100.00;103239.91;4970845;28;49850;-74
2023/01/23 06:27:24;;;;;;;;;43.00;36.00;;;;;2.47;100.00;103262.19;4970781;28;49635;-75
2023/01/23 06:29:49;;;;;;;;;48.00;43.00;;;;;0.70;100.00;102938.31;4971214;28;49912;-73
2023/01/23 06:32:15;;;;;;;;;53.25;40.50;;;;;1.84;100.00;103102.56;4970611;28;50509;-75
2023/01/23 06:34:40;;;;;;;;;51.00;40.25;;;;;1.42;100.00;103084.81;4965763;28;49890;-74
2023/01/23 06:37:05;;;;;;;;;57.00;43.25;;;;;1.38;100.00;103036.13;4967541;28;49954;-75
2023/01/23 06:39:32;;;;;;;;;40.50;32.75;;;;;0.85;100.00;102944.91;4965548;28;49873;-75
2023/01/23 06:41:58;;;;;;;;;48.75;42.50;;;;;1.63;100.00;103079.03;4965897;28;50904;-74
2023/01/23 06:44:23;;;;;;;;;46.25;38.00;;;;;0.49;100.00;102894.94;4961625;28;49849;-72
2023/01/23 06:46:51;;;;;;;;;42.50;34.75;;;;;2.14;100.00;103214.22;4966376;28;49780;-73
2023/01/23 06:49:17;;;;;;;;;48.25;42.00;;;;;1.25;100.00;102999.50;4968414;28;49804;-73
2023/01/23 06:51:42;;;;;;;;;48.25;39.00;;;;;1.82;100.00;103120.53;4970153;28;54726;-77
2023/01/23 06:54:07;;;;;;;;;42.00;39.50;;;;;2.06;100.00;103165.94;4968669;28;49657;-71
2023/01/23 06:56:33;;;;;;;;;48.25;41.75;;;;;2.31;100.00;103195.03;4951505;28;49794;-70
2023/01/23 06:58:58;;;;;;;;;46.75;44.25;;;;;1.53;100.00;103081.53;4951884;28;49576;-70
2023/01/23 07:01:25;;;;;;;;;39.00;36.75;;;;;2.41;100.00;103234.00;4951531;28;52542;-66
2023/01/23 07:03:50;;;;;;;;;55.75;44.75;;;;;2.58;100.00;103225.19;4934538;28;49834;-70
2023/01/23 07:06:16;;;;;;;;;53.75;39.00;;;;;2.74;100.00;103240.50;4951797;28;49938;-68
2023/01/23 07:08:41;;;;;;;;;53.50;41.75;;;;;2.37;100.00;103190.44;4952044;28;49837;-71
2023/01/23 07:11:07;;;;;;;;;58.50;43.50;;;;;2.25;100.00;103173.75;4951470;28;49830;-70
2023/01/23 07:13:32;;;;;;;;;56.75;40.75;;;;;1.90;100.00;103134.19;4951645;28;50048;-72
2023/01/23 07:15:58;;;;;;;;;53.00;42.00;;;;;1.81;100.00;103099.66;4960447;28;49855;-73
2023/01/23 07:18:27;;;;;;;;;38.50;32.25;;;;;1.83;100.00;103099.03;4957474;28;49671;-73
2023/01/23 07:20:52;;;;;;;;;61.25;44.25;;;;;2.35;100.00;103227.38;4951427;28;50723;-70
2023/01/23 07:23:18;;;;;;;;;37.75;30.50;;;;;2.34;100.00;103204.81;4950215;28;49961;-68
2023/01/23 07:25:44;;;;;;;;;52.75;37.25;;;;;2.20;100.00;103186.28;4951051;28;49644;-70
2023/01/23 07:28:09;;;;;;;;;58.50;44.75;;;;;1.95;100.00;103151.09;4934133;28;50064;-68
2023/01/23 07:30:34;;;;;;;;;50.50;41.00;;;;;1.57;100.00;103095.72;4951380;28;49686;-69
2023/01/23 07:33:00;;;;;;;;;58.25;44.25;;;;;2.00;100.00;103170.56;4951259;28;50422;-72
2023/01/23 07:35:25;;;;;;;;;40.75;32.50;;;;;1.45;100.00;103095.47;4934039;28;50062;-68
2023/01/23 07:37:51;;;;;;;;;46.00;40.00;;;;;0.73;100.00;102959.28;4951534;28;49951;-70
2023/01/23 07:40:16;;;;;;;;;40.50;37.00;;;;;2.34;100.00;103265.34;4951243;28;50849;-73
2023/01/23 07:42:42;;;;;;;;;41.50;34.75;;;;;1.92;100.00;103189.63;4930406;28;49702;-71
2023/01/23 07:45:09;;;;;;;;;52.50;43.25;;;;;1.76;100.00;103151.03;4931870;28;49686;-71
2023/01/23 07:47:36;;;;;;;;;48.75;43.25;;;;;1.62;100.00;103151.41;4933682;28;49675;-71
2023/01/23 07:50:01;;;;;;;;;54.75;44.00;;;;;1.80;100.00;103134.09;4935007;28;49976;-68
2023/01/23 07:52:26;;;;;;;;;35.00;31.75;;;;;2.12;100.00;103188.91;4935248;28;49590;-70
2023/01/23 07:54:52;;;;;;;;;40.50;35.25;;;;;2.25;100.00;103216.13;4935242;28;49752;-68
2023/01/23 07:57:17;;;;;;;;;54.50;45.00;;;;;2.06;100.00;103210.00;4935310;28;50305;-71
2023/01/23 07:59:43;;;;;;;;;46.50;39.50;;;;;1.63;100.00;103099.75;4935084;28;50847;-70
2023/01/23 08:02:09;;;;;;;;;48.00;41.25;;;;;2.51;100.00;103253.91;4935119;28;50482;-68
2023/01/23 08:04:35;;;;;;;;;47.00;38.50;;;;;1.10;100.00;103024.84;4935266;28;50189;-70
2023/01/23 08:07:00;;;;;;;;;51.25;42.25;;;;;2.20;100.00;103185.38;4935240;28;50217;-73
2023/01/23 08:09:26;;;;;;;;;46.00;35.25;;;;;2.39;100.00;103204.44;4934731;28;49896;-71
2023/01/23 08:11:51;;;;;;;;;39.25;37.50;;;;;1.83;100.00;103108.47;4933322;28;49757;-69
2023/01/23 08:14:16;;;;;;;;;47.00;35.25;;;;;0.64;100.00;102891.19;4934947;28;50004;-69
2023/01/23 08:16:42;;;;;;;;;46.00;35.75;;;;;2.52;100.00;103209.09;4935171;28;49947;-70
2023/01/23 08:19:07;;;;;;;;;45.25;41.50;;;;;2.07;100.00;103130.59;4934683;28;50974;-71
2023/01/23 08:21:32;;;;;;;;;39.75;31.75;;;;;2.67;100.00;103219.94;4935009;28;49900;-69
2023/01/23 08:24:00;;;;;;;;;53.00;35.25;;;;;2.10;100.00;103112.72;4933501;28;49878;-72
2023/01/23 08:26:25;;;;;;;;;46.75;38.75;;;;;2.64;100.00;103218.00;4934744;28;49739;-71
2023/01/23 08:28:51;;;;;;;;;47.00;38.00;;;;;2.47;100.00;103187.91;4934598;28;50896;-74
2023/01/23 08:31:16;;;;;;;;;42.25;41.25;;;;;2.72;100.00;103231.69;4934782;28;49740;-69
2023/01/23 08:33:42;;;;;;;;;50.00;43.50;;;;;2.44;100.00;103151.34;4934517;28;49801;-73
2023/01/23 08:36:10;;;;;;;;;48.00;34.50;;;;;3.07;100.00;103247.84;4935017;28;49679;-68
2023/01/23 08:38:35;;;;;;;;;54.00;39.50;;;;;3.03;100.00;103230.19;4934492;28;49813;-67
2023/01/23 08:41:02;;;;;;;;;42.75;36.50;;;;;3.12;100.00;103251.78;4949057;28;49787;-68
2023/01/23 08:43:28;;;;;;;;;48.00;37.75;;;;;2.75;100.00;103180.97;4951334;28;50054;-68
2023/01/23 08:45:55;;;;;;;;;27.50;17.00;;;;;2.71;100.00;103158.13;4953807;28;49928;-67
2023/01/23 08:48:23;;;;;;;;;51.25;37.50;;;;;2.90;100.00;103191.84;4953515;28;51066;-68
2023/01/23 08:50:49;;;;;;;;;41.00;36.00;;;;;2.88;100.00;103194.28;4953655;28;49806;-67
2023/01/23 08:53:15;;;;;;;;;41.50;32.25;;;;;3.17;100.00;103240.09;4953786;28;49730;-67
2023/01/23 08:55:41;;;;;;;;;43.50;38.00;;;;;2.88;100.00;103170.00;4953931;28;50411;-68
2023/01/23 08:58:08;;;;;;;;;44.50;37.75;;;;;2.12;100.00;103041.22;4953062;28;50880;-68
2023/01/23 09:00:34;;;;;;;;;39.00;36.25;;;;;3.18;100.00;103215.97;4965541;28;49803;-68
2023/01/23 09:03:01;;;;;;;;;35.50;32.00;;;;;2.87;100.00;103176.88;4971593;28;49810;-72
2023/01/23 09:05:28;;;;;;;;;36.00;30.75;;;;;3.19;100.00;103225.59;4971972;28;49909;-71
2023/01/23 09:07:54;;;;;;;;;45.75;38.75;;;;;2.85;100.00;103169.75;4971676;28;50895;-71
2023/01/23 09:10:19;;;;;;;;;52.00;40.50;;;;;2.66;100.00;103174.94;4972148;28;49968;-70
2023/01/23 09:12:45;;;;;;;;;49.25;41.25;;;;;3.17;100.00;103219.34;4972203;28;49654;-72
2023/01/23 09:15:11;;;;;;;;;47.75;41.00;;;;;2.77;100.00;103162.97;4954663;28;50034;-68
2023/01/23 09:17:36;;;;;;;;;49.75;41.75;;;;;3.28;100.00;103265.38;4971757;28;50359;-71
2023/01/23 09:20:04;;;;;;;;;33.00;25.50;;;;;3.37;100.00;103254.88;4971786;28;49804;-68
2023/01/23 09:22:30;;;;;;;;;42.00;40.75;;;;;2.98;100.00;103182.13;4971803;28;49873;-68
2023/01/23 09:24:56;;;;;;;;;32.25;27.75;;;;;3.03;100.00;103194.75;4971821;28;49891;-68
2023/01/23 09:27:21;;;;;;;;;48.50;42.00;;;;;3.02;100.00;103202.41;4971834;28;50806;-68
2023/01/23 09:29:48;;;;;;;;;49.75;37.50;;;;;3.38;100.00;103275.81;4971962;28;49924;-67
2023/01/23 09:32:13;;;;;;;;;53.75;38.50;;;;;3.42;100.00;103262.31;4954344;28;49651;-65
2023/01/23 09:34:38;;;;;;;;;37.75;33.75;;;;;3.20;100.00;103210.94;4972028;28;50133;-63
2023/01/23 09:37:04;;;;;;;;;42.25;36.00;;;;;2.96;100.00;103170.72;4971508;28;51160;-63
2023/01/23 09:39:30;;;;;;;;;37.25;34.75;;;;;3.43;100.00;103239.84;4971624;28;49932;-66
2023/01/23 09:41:55;;;;;;;;;33.75;30.00;;;;;3.35;100.00;103230.47;4971174;28;50428;-65
2023/01/23 09:44:39;;;;;;;;;43.75;37.00;;;;;3.64;100.00;103285.00;4971775;28;50149;-66
2023/01/23 09:47:20;;;;;;;;;49.50;34.75;;;;;3.57;100.00;103265.38;4971144;28;49706;-69
2023/01/23 09:49:48;;;;;;;;;39.50;32.75;;;;;3.81;100.00;103286.50;4971609;28;49888;-68
2023/01/23 09:52:23;;;;;;;;;39.00;32.25;;;;;3.67;100.00;103275.81;4971504;28;49726;-70
2023/01/23 09:54:56;;;;;;;;;37.00;30.00;;;;;3.36;100.00;103235.78;4971670;28;49770;-65
2023/01/23 09:57:31;;;;;;;;;37.50;30.25;;;;;3.51;100.00;103295.06;4970906;28;51285;-66
2023/01/23 10:00:06;;;;;;;;;39.25;33.50;;;;;3.72;100.00;103302.19;4971424;28;49811;-72
2023/01/23 10:02:31;;;;;;;;;37.75;31.50;;;;;2.87;100.00;103131.88;4971322;28;49769;-67
2023/01/23 10:05:00;;;;;;;;;34.50;25.75;;;;;3.81;100.00;103302.09;4971491;28;49655;-65
2023/01/23 10:07:55;;;;;;;;;35.00;31.75;;;;;3.72;100.00;103284.00;4971205;28;50791;-72
2023/01/23 10:10:40;;;;;;;;;32.25;28.25;;;;;3.84;100.00;103302.34;4958060;28;49616;-66
2023/01/23 10:14:01;;;;;;;;;37.25;36.50;;;;;3.31;100.00;103239.66;4966957;28;49871;-64
2023/01/23 10:16:32;;;;;;;;;38.00;31.25;;;;;3.66;100.00;103309.41;4948154;28;49805;-65
2023/01/23 10:19:24;;;;;;;;;41.25;34.00;;;;;3.44;100.00;103263.34;4970699;28;51099;-65
2023/01/23 10:22:23;;;;;;;;;33.50;30.50;;;;;3.78;100.00;103302.72;4970890;28;50129;-64
2023/01/23 10:24:51;;;;;;;;;42.75;37.00;;;;;3.28;100.00;103223.84;4970857;28;49942;-67
2023/01/23 10:27:22;;;;;;;;;46.75;34.75;;;;;3.63;100.00;103254.59;4971352;28;49939;-64
2023/01/23 10:30:20;;;;;;;;;36.75;34.25;;;;;3.69;100.00;103252.56;4970899;28;50402;-70
2023/01/23 10:33:10;;;;;;;;;34.50;32.00;;;;;3.87;100.00;103300.94;4956216;28;49906;-66
2023/01/23 10:35:42;;;;;;;;;36.25;33.00;;;;;3.64;100.00;103249.53;4971049;28;50317;-66
2023/01/23 10:38:11;;;;;;;;;37.75;27.50;;;;;4.00;100.00;103298.63;4970901;28;49703;-66
2023/01/23 10:43:21;;;;;;;;;34.75;29.25;;;;;3.68;100.00;103271.53;4970736;28;49678;-66
2023/01/23 10:45:48;;;;;;;;;41.50;34.50;;;;;3.95;100.00;103299.00;4970524;28;49785;-67
2023/01/23 10:48:32;;;;;;;;;41.00;34.75;;;;;3.97;100.00;103305.25;4971047;28;49676;-70
2023/01/23 10:51:00;;;;;;;;;33.50;28.00;;;;;3.67;100.00;103261.91;4970315;28;50543;-67
2023/01/23 10:53:26;;;;;;;;;45.50;34.25;;;;;3.79;100.00;103275.06;4970343;28;49727;-67
2023/01/23 10:55:57;;;;;;;;;39.75;23.75;;;;;3.67;100.00;103251.53;4970425;28;49930;-68
2023/01/23 10:58:36;;;;;;;;;43.50;35.25;;;;;3.92;100.00;103283.16;4970741;28;49766;-68
2023/01/23 11:01:03;;;;;;;;;36.25;28.00;;;;;2.62;100.00;103039.72;4970471;28;49924;-68
2023/01/23 11:03:32;;;;;;;;;40.00;31.00;;;;;3.67;100.00;103190.09;4970619;28;49938;-67
2023/01/23 11:06:15;;;;;;;;;34.00;31.75;;;;;4.25;100.00;103278.28;4970432;28;49770;-66
2023/01/23 11:08:51;;;;;;;;;43.25;37.25;;;;;3.93;100.00;103230.38;4970607;28;49710;-66
2023/01/23 11:11:25;;;;;;;;;33.25;25.00;;;;;3.55;100.00;103185.47;4970210;28;49877;-67
2023/01/23 11:14:04;;;;;;;;;41.00;34.75;;;;;4.00;100.00;103225.88;4970169;28;50642;-69
2023/01/23 11:16:30;;;;;;;;;28.25;24.75;;;;;3.81;100.00;103192.94;4970439;28;49833;-69
2023/01/23 11:19:04;;;;;;;;;35.25;30.25;;;;;4.13;100.00;103219.09;4970574;28;49848;-67
2023/01/23 11:21:53;;;;;;;;;38.25;35.50;;;;;4.19;100.00;103243.97;4971549;28;49985;-67
2023/01/23 11:24:24;;;;;;;;;44.00;31.00;;;;;4.34;100.00;103267.75;4973770;28;49586;-67
2023/01/23 11:27:00;;;;;;;;;33.50;28.25;;;;;4.43;100.00;103265.94;4961221;28;49797;-67
2023/01/23 11:29:29;;;;;;;;;33.00;29.25;;;;;3.83;100.00;103168.00;4968614;28;49689;-68
2023/01/23 11:32:10;;;;;;;;;35.75;28.75;;;;;4.34;100.00;103252.13;4973559;28;50196;-66
2023/01/23 11:34:48;;;;;;;;;25.00;25.00;;;;;3.87;100.00;103175.31;4973007;28;49766;-67
2023/01/23 11:37:27;;;;;;;;;26.25;23.50;;;;;3.92;100.00;103202.59;4973418;28;49720;-69
2023/01/23 11:39:57;;;;;;;;;35.75;27.00;;;;;3.92;100.00;103216.47;4973468;28;49792;-67
2023/01/23 11:42:25;;;;;;;;;25.25;20.25;;;;;3.72;100.00;103183.56;4973012;28;50929;-68
2023/01/23 11:44:51;;;;;;;;;33.25;27.25;;;;;3.79;100.00;103194.50;4973335;28;49648;-68
2023/01/23 11:47:31;;;;;;;;;24.75;24.75;;;;;4.03;100.00;103254.72;4972790;28;49917;-67
2023/01/23 11:50:10;;;;;;;;;34.75;29.00;;;;;3.97;100.00;103258.47;4955949;28;50108;-67
2023/01/23 11:52:53;;;;;;;;;35.25;31.50;;;;;3.93;100.00;103275.47;4973097;28;50765;-68
2023/01/23 11:55:51;;;;;;;;;33.00;30.50;;;;;3.96;100.00;103256.66;4973236;28;49782;-69
2023/01/23 11:58:41;;;;;;;;;27.75;21.50;;;;;3.98;100.00;103252.50;4973370;28;49846;-66
2023/01/23 12:01:30;;;;;;;;;37.50;31.75;;;;;3.45;100.00;103165.59;4973470;28;50036;-68
2023/01/23 12:04:14;;;;;;;;;40.50;28.00;;;;;3.98;100.00;103243.03;4972780;28;52450;-67
2023/01/23 12:07:04;;;;;;;;;36.25;31.50;;;;;3.99;100.00;103238.72;4955433;28;49528;-67
2023/01/23 12:09:53;;;;;;;;;44.75;34.00;;;;;4.00;100.00;103217.16;4973220;28;49844;-69
2023/01/23 12:12:30;;;;;;;;;38.00;32.50;;;;;3.93;100.00;103225.19;4973354;28;49891;-67
2023/01/23 12:15:29;;;;;;;;;36.50;32.50;;;;;3.95;100.00;103227.13;4972884;28;49757;-67
2023/01/23 12:18:11;;;;;;;;;30.00;28.50;;;;;4.06;100.00;103211.59;4952392;28;49866;-68
2023/01/23 12:20:55;;;;;;;;;43.25;37.25;;;;;3.44;100.00;103097.16;4972959;28;50183;-67
2023/01/23 12:24:01;;;;;;;;;34.50;32.00;;;;;3.83;100.00;103162.81;4973145;28;50072;-69
2023/01/23 12:26:30;;;;;;;;;38.75;26.00;;;;;3.77;100.00;103163.22;4972513;28;50008;-67
2023/01/23 12:29:03;;;;;;;;;23.75;16.50;;;;;3.70;100.00;103153.06;4972844;28;49876;-68
2023/01/23 12:31:31;;;;;;;;;31.75;30.50;;;;;3.98;100.00;103198.84;4972694;28;49962;-69
2023/01/23 12:34:35;;;;;;;;;31.75;26.25;;;;;3.66;100.00;103149.25;4972376;28;50032;-66
2023/01/23 12:37:00;;;;;;;;;26.75;19.25;;;;;3.98;100.00;103193.63;4972003;28;51686;-67
2023/01/23 12:39:51;;;;;;;;;29.00;24.25;;;;;3.78;100.00;103157.22;4972543;28;49911;-67
2023/01/23 12:42:24;;;;;;;;;42.75;35.25;;;;;3.49;100.00;103089.78;4972443;28;49721;-69
2023/01/23 12:45:02;;;;;;;;;28.25;22.75;;;;;4.08;100.00;103191.81;4972612;28;49626;-67
2023/01/23 12:47:37;;;;;;;;;28.50;23.75;;;;;3.66;100.00;103120.69;4972244;28;50017;-67
2023/01/23 12:50:14;;;;;;;;;21.75;17.75;;;;;4.06;100.00;103201.19;4967463;28;49742;-67
2023/01/23 12:52:54;;;;;;;;;23.00;21.75;;;;;3.93;100.00;103162.81;4972694;28;49777;-67
2023/01/23 12:55:22;;;;;;;;;33.50;25.00;;;;;3.99;100.00;103189.34;4972557;28;49843;-67
2023/01/23 12:57:53;;;;;;;;;29.75;29.75;;;;;3.92;100.00;103195.69;4972041;28;50370;-67
2023/01/23 13:00:37;;;;;;;;;34.25;28.00;;;;;3.06;100.00;103012.47;4972222;28;49614;-68
2023/01/23 13:03:19;;;;;;;;;35.50;31.25;;;;;4.02;100.00;103180.13;4959941;28;49953;-67
2023/01/23 13:05:58;;;;;;;;;28.75;25.00;;;;;3.99;100.00;103179.84;4967956;28;50257;-66
2023/01/23 13:08:26;;;;;;;;;27.25;23.75;;;;;3.56;100.00;103117.16;4971960;28;50066;-67
2023/01/23 13:13:50;;;;;;;;;28.50;17.25;;;;;3.65;100.00;103128.34;4972305;28;49770;-65
2023/01/23 13:16:18;;;;;;;;;17.50;16.00;;;;;3.28;100.00;103039.50;4954586;28;49637;-68
2023/01/23 13:22:02;;;;;;;;;25.50;24.00;;;;;4.03;100.00;103170.63;4971949;28;49733;-68
2023/01/23 13:27:41;;;;;;;;;26.50;16.75;;;;;4.07;100.00;103183.13;4972193;28;49834;-65
2023/01/23 13:30:25;;;;;;;;;36.75;27.75;;;;;4.04;100.00;103162.03;4971672;28;49871;-64
2023/01/23 13:32:52;;;;;;;;;30.75;20.25;;;;;3.67;100.00;103104.34;4971808;28;49844;-68
2023/01/23 13:35:39;;;;;;;;;16.75;16.00;;;;;3.97;100.00;103162.31;4971733;28;49884;-64
2023/01/23 13:38:19;;;;;;;;;25.25;23.00;;;;;4.04;100.00;103151.66;4971755;28;49684;-67
2023/01/23 13:41:10;;;;;;;;;28.25;22.50;;;;;3.70;100.00;103075.13;4971469;28;51060;-65
2023/01/23 13:44:14;;;;;;;;;33.25;25.00;;;;;4.23;100.00;103161.91;4971336;28;49852;-67
2023/01/23 13:46:47;;;;;;;;;18.00;16.50;;;;;4.10;100.00;103157.38;4971423;28;50012;-66
2023/01/23 13:57:45;;;;;;;;;22.50;19.00;;;;;4.23;100.00;103141.13;4971617;28;49928;-68
2023/01/23 14:00:22;;;;;;;;;20.50;13.50;;;;;4.28;100.00;103179.75;4971650;28;50010;-65
2023/01/23 14:05:40;;;;;;;;;28.00;20.50;;;;;3.77;100.00;103093.06;4971351;28;49634;-68
2023/01/23 14:08:16;;;;;;;;;36.50;27.25;;;;;3.93;100.00;103109.16;4969968;28;49767;-65
2023/01/23 14:10:47;;;;;;;;;20.75;19.25;;;;;4.18;100.00;103145.03;4971270;28;49767;-62
2023/01/23 14:13:16;;;;;;;;;29.00;23.00;;;;;4.04;100.00;103136.06;4971013;28;50966;-62
2023/01/23 14:18:43;;;;;;;;;23.00;23.00;;;;;3.92;100.00;103132.41;4971093;28;49948;-66
2023/01/23 14:21:21;;;;;;;;;22.75;19.75;;;;;3.97;100.00;103132.03;4953693;28;49628;-66
2023/01/23 14:23:57;;;;;;;;;25.00;21.75;;;;;3.88;100.00;103120.88;4971215;28;50757;-65
2023/01/23 14:26:26;;;;;;;;;38.00;23.00;;;;;3.52;100.00;103083.94;4974455;28;49659;-67
2023/01/23 14:28:59;;;;;;;;;22.75;18.50;;;;;3.86;100.00;103104.25;4970707;28;49887;-68
2023/01/23 14:31:35;;;;;;;;;20.75;16.75;;;;;4.08;100.00;103139.84;4970852;28;49745;-65
2023/01/23 14:34:06;;;;;;;;;34.00;25.75;;;;;4.02;100.00;103138.53;4972261;28;49818;-70
2023/01/23 14:36:35;;;;;;;;;27.25;23.00;;;;;3.84;100.00;103113.56;4971764;28;49601;-66
2023/01/23 14:39:01;;;;;;;;;20.75;19.00;;;;;3.93;100.00;103139.44;4974143;28;49824;-65
2023/01/23 14:41:32;;;;;;;;;28.25;22.00;;;;;3.64;100.00;103083.28;4976555;28;50438;-64
2023/01/23 14:44:01;;;;;;;;;19.25;16.75;;;;;3.81;100.00;103113.31;4965335;28;49880;-69
2023/01/23 14:46:37;;;;;;;;;19.50;16.00;;;;;2.35;100.00;102873.16;4966962;28;49738;-64
2023/01/23 14:49:06;;;;;;;;;32.00;21.50;;;;;3.58;100.00;103105.25;4950904;28;50001;-67
2023/01/23 14:51:32;;;;;;;;;20.75;13.50;;;;;3.81;100.00;103120.22;4950713;28;49758;-67
2023/01/23 14:54:03;;;;;;;;;27.00;21.00;;;;;3.51;100.00;103066.53;4932933;28;52205;-69
2023/01/23 14:56:36;;;;;;;;;28.00;23.75;;;;;3.69;100.00;103096.69;4949877;28;49935;-66
2023/01/23 14:59:05;;;;;;;;;26.00;21.25;;;;;3.86;100.00;103127.63;4970086;28;50108;-69
2023/01/23 15:01:31;;;;;;;;;18.75;18.75;;;;;4.15;100.00;103178.56;4971368;28;49581;-65
2023/01/23 15:04:02;;;;;;;;;29.75;24.50;;;;;3.84;100.00;103126.56;4970542;28;50259;-68
2023/01/23 15:06:32;;;;;;;;;19.25;19.25;;;;;3.81;100.00;103115.91;4957782;28;49899;-68
2023/01/23 15:09:16;;;;;;;;;28.25;22.25;;;;;3.67;100.00;103086.19;4958595;28;49984;-66
2023/01/23 15:11:43;;;;;;;;;28.00;19.50;;;;;3.99;100.00;103147.75;4952196;28;49833;-68
2023/01/23 15:14:25;;;;;;;;;25.50;19.50;;;;;3.87;100.00;103113.84;4951930;28;50006;-70
2023/01/23 15:16:58;;;;;;;;;16.75;14.25;;;;;3.95;100.00;103141.38;4951943;28;50027;-69
2023/01/23 15:19:24;;;;;;;;;17.25;9.75;;;;;3.97;100.00;103176.22;4951968;28;49872;-67
2023/01/23 15:22:04;;;;;;;;;16.50;16.50;;;;;3.69;100.00;103140.84;4952052;28;49931;-70
2023/01/23 15:24:29;;;;;;;;;18.25;16.75;;;;;3.28;100.00;103043.78;4951629;28;50063;-66
2023/01/23 15:26:56;;;;;;;;;17.75;17.50;;;;;3.73;100.00;103122.13;4951364;28;55942;-66
2023/01/23 15:29:22;;;;;;;;;18.00;16.00;;;;;3.46;100.00;103110.28;4952038;28;49786;-64
2023/01/23 15:31:52;;;;;;;;;26.75;21.75;;;;;3.75;100.00;103143.94;4952031;28;49807;-66
2023/01/23 15:34:30;;;;;;;;;22.75;18.50;;;;;3.90;100.00;103165.16;4934271;28;52345;-67
2023/01/23 15:37:17;;;;;;;;;23.50;21.50;;;;;3.54;100.00;103108.34;4964339;28;49683;-67
2023/01/23 15:39:53;;;;;;;;;26.50;23.25;;;;;3.47;100.00;103111.19;4969257;28;49865;-65
2023/01/23 15:42:27;;;;;;;;;26.25;24.50;;;;;3.91;100.00;103173.09;4969945;28;49749;-70
2023/01/23 15:44:53;;;;;;;;;18.75;18.25;;;;;3.60;100.00;103103.69;4965049;28;50866;-69
2023/01/23 15:47:19;;;;;;;;;31.25;27.50;;;;;3.88;100.00;103152.06;4962339;28;49862;-66
2023/01/23 15:49:44;;;;;;;;;22.50;18.50;;;;;3.78;100.00;103123.47;4955830;28;50169;-67
2023/01/23 15:52:26;;;;;;;;;23.50;18.75;;;;;3.91;100.00;103160.09;4971172;28;49691;-68
2023/01/23 15:54:58;;;;;;;;;26.50;21.25;;;;;3.69;100.00;103127.88;4972809;28;50783;-68
2023/01/23 15:57:23;;;;;;;;;28.25;26.50;;;;;3.53;100.00;103064.97;4960374;28;49684;-70
2023/01/23 15:59:49;;;;;;;;;26.75;19.00;;;;;3.49;100.00;103060.31;4970134;28;49774;-66
2023/01/23 16:02:20;;;;;;;;;27.25;27.25;;;;;3.75;100.00;103107.59;4954136;28;50101;-63
2023/01/23 16:04:46;;;;;;;;;24.75;20.25;;;;;3.93;100.00;103124.75;4971406;28;50966;-67
2023/01/23 16:07:24;;;;;;;;;31.00;24.50;;;;;3.66;100.00;103079.13;4975752;28;50065;-67
2023/01/23 16:09:50;;;;;;;;;11.00;9.75;;;;;3.97;100.00;103136.34;4975471;28;49831;-67
2023/01/23 16:12:18;;;;;;;;;27.00;22.75;;;;;3.45;100.00;103040.94;4973273;28;49806;-67
2023/01/23 16:14:45;;;;;;;;;17.25;14.50;;;;;3.63;100.00;103073.69;4974061;28;50013;-69
2023/01/23 16:17:10;;;;;;;;;20.00;20.00;;;;;3.64;100.00;103098.88;4967831;28;49907;-67
2023/01/23 16:19:36;;;;;;;;;31.25;24.25;;;;;3.75;100.00;103097.19;4973200;28;49664;-66
2023/01/23 16:22:01;;;;;;;;;25.25;24.00;;;;;3.54;100.00;103056.41;4973002;28;50062;-71
2023/01/23 16:24:28;;;;;;;;;23.50;22.25;;;;;3.24;100.00;103071.16;4971935;28;49911;-65
2023/01/23 16:27:00;;;;;;;;;26.50;23.50;;;;;4.00;100.00;103166.09;4968456;28;50344;-72
2023/01/23 16:29:31;;;;;;;;;23.00;22.75;;;;;3.45;100.00;103060.03;4970953;28;49640;-67
2023/01/23 16:31:57;;;;;;;;;24.50;24.25;;;;;4.01;100.00;103157.50;4969913;28;50146;-65
2023/01/23 16:34:26;;;;;;;;;26.25;24.75;;;;;4.06;100.00;103157.00;4967713;28;50038;-71
2023/01/23 16:36:56;;;;;;;;;25.00;21.25;;;;;4.05;100.00;103184.66;4968043;28;49651;-68
2023/01/23 16:39:25;;;;;;;;;22.25;20.00;;;;;3.24;100.00;103010.56;4967431;28;49945;-69
2023/01/23 16:41:53;;;;;;;;;24.75;19.50;;;;;3.86;100.00;103135.44;4966580;28;49980;-66
2023/01/23 16:44:22;;;;;;;;;22.25;20.00;;;;;3.82;100.00;103140.22;4957425;28;49837;-66
2023/01/23 16:46:51;;;;;;;;;26.50;15.00;;;;;3.50;100.00;103080.31;4966056;28;50679;-69
2023/01/23 16:49:17;;;;;;;;;17.50;17.25;;;;;3.38;100.00;103065.50;4976871;28;49671;-63
2023/01/23 16:52:03;;;;;;;;;16.50;16.50;;;;;3.99;100.00;103173.75;4966557;28;49681;-63
2023/01/23 16:54:29;;;;;;;;;27.25;21.50;;;;;3.51;100.00;103113.28;4972080;28;50832;-64
2023/01/23 16:56:56;;;;;;;;;30.50;28.50;;;;;3.92;100.00;103190.50;4973779;28;49910;-64
2023/01/23 16:59:36;;;;;;;;;24.00;21.50;;;;;2.98;100.00;103010.88;4972571;28;49824;-62
2023/01/23 17:02:18;;;;;;;;;18.25;15.75;;;;;3.20;100.00;103052.59;4972661;28;50052;-63
2023/01/23 17:04:44;;;;;;;;;15.25;12.00;;;;;2.69;100.00;102979.78;4970583;28;51209;-69
2023/01/23 17:07:13;;;;;;;;;25.50;23.75;;;;;3.64;100.00;103163.81;4971945;28;49855;-69
2023/01/23 17:09:39;;;;;;;;;35.00;25.00;;;;;2.58;100.00;103004.78;4973948;28;49976;-70
2023/01/23 17:12:05;;;;;;;;;28.00;26.25;;;;;3.03;100.00;103035.56;4974566;28;50244;-68
2023/01/23 17:14:31;;;;;;;;;26.75;24.25;;;;;3.66;100.00;103153.56;4971703;28;49914;-65
2023/01/23 17:17:01;;;;;;;;;23.25;20.25;;;;;3.06;100.00;103088.63;4966344;28;50139;-64
2023/01/23 17:19:33;;;;;;;;;28.00;25.00;;;;;2.91;100.00;103031.91;4967322;28;49742;-64
2023/01/23 17:22:01;;;;;;;;;26.00;25.75;;;;;3.01;100.00;103094.19;4954533;28;49750;-67
2023/01/23 17:24:27;;;;;;;;;31.25;24.25;;;;;2.54;100.00;102969.91;4952314;28;49966;-64
2023/01/23 17:26:52;;;;;;;;;25.00;22.50;;;;;3.92;100.00;103208.69;4952314;28;49965;-67
2023/01/23 17:29:18;;;;;;;;;27.00;23.00;;;;;3.60;100.00;103148.75;4935185;28;50237;-74
2023/01/23 17:31:44;;;;;;;;;26.50;23.25;;;;;3.34;100.00;103109.22;4953325;28;50421;-67
2023/01/23 17:34:20;;;;;;;;;28.00;23.75;;;;;3.26;100.00;103123.19;4953026;28;50053;-68
2023/01/23 17:36:46;;;;;;;;;33.25;25.00;;;;;3.69;100.00;103230.09;4952745;28;50079;-72